Time;durP1;ratioP1;P1;durP2;ratioP2;P2;SDS_P1;SDS_P2;PMS_P1;PMS_P2;Temp;Humidity;BMP_temperature;BMP_pressure;BME280_temperature;BME280_humidity;BME280_pressure;Samples;Min_cycle;Max_cycle;Signal;HPM_P1;HPM_P2
2022/11/17 00:01:26;;;;;;;7.80;5.67;;;10.40;99.90;;;;;;5016758;28;20486;-61
2022/11/17 00:03:53;;;;;;;5.20;4.70;;;10.40;99.90;;;;;;5016664;28;20453;-60
2022/11/17 00:06:22;;;;;;;5.70;4.90;;;10.30;99.90;;;;;;5016700;28;20561;-61
2022/11/17 00:08:52;;;;;;;6.03;5.40;;;10.30;99.90;;;;;;5016422;28;20585;-61
2022/11/17 00:11:19;;;;;;;6.63;5.37;;;10.30;99.90;;;;;;5016979;28;20530;-61
2022/11/17 00:16:31;;;;;;;6.10;5.47;;;10.40;99.90;;;;;;5016635;28;20586;-62
2022/11/17 00:21:45;;;;;;;6.03;5.43;;;10.30;99.90;;;;;;5016711;28;20438;-61
2022/11/17 00:24:16;;;;;;;5.43;4.87;;;10.30;99.90;;;;;;5016479;28;20451;-60
2022/11/17 00:29:25;;;;;;;7.43;5.83;;;10.10;99.90;;;;;;5016115;28;20514;-61
2022/11/17 00:34:42;;;;;;;5.30;4.80;;;10.20;99.90;;;;;;4996464;28;20555;-60
2022/11/17 00:37:11;;;;;;;7.70;5.67;;;10.30;99.90;;;;;;5016387;28;20466;-61
2022/11/17 00:39:39;;;;;;;7.00;5.00;;;10.30;99.90;;;;;;5016078;28;20451;-61
2022/11/17 00:42:06;;;;;;;10.60;5.93;;;10.30;99.90;;;;;;5016413;28;20451;-60
2022/11/17 00:44:34;;;;;;;5.30;4.80;;;10.40;99.90;;;;;;5016309;28;20447;-61
2022/11/17 00:47:02;;;;;;;6.37;5.40;;;10.40;99.90;;;;;;5016175;28;20454;-61
2022/11/17 00:49:29;;;;;;;6.53;5.30;;;10.30;99.90;;;;;;5015874;28;20455;-61
2022/11/17 00:51:57;;;;;;;7.80;5.00;;;10.20;99.90;;;;;;5015497;28;20960;-61
2022/11/17 00:54:26;;;;;;;6.10;5.37;;;10.30;99.90;;;;;;5015731;28;20487;-61
2022/11/17 00:56:53;;;;;;;6.10;5.20;;;10.40;99.90;;;;;;5015792;28;20811;-61
2022/11/17 00:59:21;;;;;;;7.37;5.23;;;10.50;99.90;;;;;;5015736;28;20533;-61
2022/11/17 01:01:48;;;;;;;8.47;5.40;;;10.40;99.90;;;;;;5015684;28;20451;-60
2022/11/17 01:04:16;;;;;;;7.10;4.90;;;10.30;99.90;;;;;;5015460;28;20964;-61
2022/11/17 01:06:46;;;;;;;5.57;5.07;;;10.40;99.90;;;;;;5015560;28;20475;-60
2022/11/17 01:09:15;;;;;;;5.70;5.10;;;10.40;99.90;;;;;;5015267;28;20502;-60
2022/11/17 01:11:45;;;;;;;6.83;4.90;;;10.20;99.90;;;;;;5015495;28;20961;-60
2022/11/17 01:14:14;;;;;;;5.17;4.67;;;10.30;99.90;;;;;;5015448;28;20530;-61
2022/11/17 01:16:42;;;;;;;6.80;6.03;;;10.30;99.90;;;;;;5015314;28;20481;-61
2022/11/17 01:19:12;;;;;;;4.90;4.43;;;10.40;99.90;;;;;;5015593;28;20533;-60
2022/11/17 01:21:39;;;;;;;5.53;5.03;;;10.30;99.90;;;;;;5015401;28;20458;-61
2022/11/17 01:24:07;;;;;;;6.37;4.50;;;10.30;99.90;;;;;;5015346;28;20455;-61
2022/11/17 01:26:36;;;;;;;8.07;5.60;;;10.30;99.90;;;;;;5015447;28;20501;-61
2022/11/17 01:29:07;;;;;;;6.20;5.20;;;10.30;99.90;;;;;;5015091;28;20567;-61
2022/11/17 01:31:36;;;;;;;7.27;5.60;;;10.20;99.90;;;;;;5015147;28;20458;-60
2022/11/17 01:34:03;;;;;;;5.50;5.00;;;10.10;99.90;;;;;;5015036;28;20960;-61
2022/11/17 01:37:17;;;;;;;8.77;5.63;;;10.10;99.90;;;;;;5014972;28;20498;-61
2022/11/17 01:39:22;;;;;;;5.90;5.30;;;10.20;99.90;;;;;;5014914;28;20814;-61
2022/11/17 01:41:50;;;;;;;6.37;4.70;;;10.20;99.90;;;;;;5014961;28;20450;-61
2022/11/17 01:44:50;;;;;;;7.70;4.23;;;10.10;99.90;;;;;;5014917;28;20933;-61
2022/11/17 01:47:23;;;;;;;5.53;5.13;;;10.20;99.90;;;;;;5011895;28;20509;-61
2022/11/17 01:49:53;;;;;;;5.00;4.20;;;10.20;99.90;;;;;;5015147;28;20507;-61
2022/11/17 01:52:21;;;;;;;7.43;5.20;;;10.20;99.90;;;;;;5015115;28;20534;-61
2022/11/17 01:54:49;;;;;;;5.00;4.60;;;10.30;99.90;;;;;;5014657;28;21032;-61
2022/11/17 01:57:21;;;;;;;7.20;4.83;;;10.30;99.90;;;;;;5014671;28;20486;-61
2022/11/17 01:59:52;;;;;;;5.90;5.00;;;10.40;99.90;;;;;;5014970;28;20861;-61
2022/11/17 02:02:24;;;;;;;6.50;4.67;;;10.40;99.90;;;;;;5014168;28;20454;-61
2022/11/17 02:05:00;;;;;;;5.50;4.43;;;10.40;99.90;;;;;;5014356;28;20570;-61
2022/11/17 02:07:31;;;;;;;6.30;4.63;;;10.50;99.90;;;;;;5015272;28;20518;-61
2022/11/17 02:09:59;;;;;;;5.70;4.07;;;10.50;99.90;;;;;;5014576;28;20429;-61
2022/11/17 02:12:28;;;;;;;5.63;4.23;;;10.40;99.90;;;;;;5014352;28;20443;-61
2022/11/17 02:14:55;;;;;;;5.57;4.60;;;10.50;99.90;;;;;;5014576;28;20471;-61
2022/11/17 02:17:28;;;;;;;6.17;5.10;;;10.40;99.90;;;;;;5014307;28;20446;-61
2022/11/17 02:20:04;;;;;;;5.20;4.70;;;10.40;99.90;;;;;;5014279;28;20432;-61
2022/11/17 02:22:55;;;;;;;5.10;4.60;;;10.40;99.90;;;;;;5014261;28;20856;-61
2022/11/17 02:25:53;;;;;;;6.17;4.60;;;10.30;99.90;;;;;;5014177;28;20832;-61
2022/11/17 02:28:25;;;;;;;5.10;4.00;;;10.30;99.90;;;;;;4998327;28;20920;-61
2022/11/17 02:31:07;;;;;;;6.20;4.60;;;10.20;99.90;;;;;;5014487;28;20846;-60
2022/11/17 02:33:42;;;;;;;5.30;4.17;;;10.20;99.90;;;;;;5014447;28;20530;-61
2022/11/17 02:36:17;;;;;;;7.17;4.80;;;10.10;99.90;;;;;;5014321;28;20469;-61
2022/11/17 02:38:54;;;;;;;5.07;4.57;;;10.00;99.90;;;;;;5014059;28;20494;-61
2022/11/17 02:41:26;;;;;;;6.43;4.27;;;10.00;99.90;;;;;;5014042;28;20439;-61
2022/11/17 02:44:03;;;;;;;5.90;4.77;;;10.00;99.90;;;;;;5013981;28;20427;-61
2022/11/17 02:46:40;;;;;;;4.97;4.50;;;10.00;99.90;;;;;;5013864;28;21039;-61
2022/11/17 02:49:14;;;;;;;6.77;4.53;;;10.00;99.90;;;;;;5014140;28;20475;-61
2022/11/17 02:51:43;;;;;;;4.60;4.20;;;9.90;99.90;;;;;;5013872;28;20463;-61
2022/11/17 02:54:12;;;;;;;5.30;4.80;;;9.90;99.90;;;;;;5014156;28;20486;-61
2022/11/17 02:56:43;;;;;;;5.47;4.13;;;9.90;99.90;;;;;;5014027;28;20508;-60
2022/11/17 02:59:13;;;;;;;5.43;4.87;;;9.90;99.90;;;;;;5013762;28;20447;-61
2022/11/17 03:02:22;;;;;;;10.70;4.17;;;9.90;99.90;;;;;;5013761;28;20945;-61
2022/11/17 03:05:03;;;;;;;4.90;4.40;;;10.00;99.90;;;;;;5013825;28;20502;-61
2022/11/17 03:07:46;;;;;;;5.60;4.33;;;10.00;99.90;;;;;;5013452;28;20519;-60
2022/11/17 03:10:19;;;;;;;4.43;4.03;;;10.10;99.90;;;;;;5013741;28;20431;-61
2022/11/17 03:12:55;;;;;;;4.97;4.17;;;10.10;99.90;;;;;;5013963;28;20431;-61
2022/11/17 03:15:29;;;;;;;4.70;4.20;;;10.20;99.90;;;;;;5016381;28;20501;-61
2022/11/17 03:18:05;;;;;;;10.10;4.43;;;10.30;99.90;;;;;;5018036;28;20431;-61
2022/11/17 03:20:40;;;;;;;5.57;4.23;;;10.40;99.90;;;;;;5017816;28;20431;-61
2022/11/17 03:23:11;;;;;;;4.20;3.73;;;10.30;99.90;;;;;;5017605;28;20955;-60
2022/11/17 03:25:41;;;;;;;5.77;4.10;;;10.40;99.90;;;;;;5017479;28;20462;-60
2022/11/17 03:28:11;;;;;;;5.37;4.97;;;10.40;99.90;;;;;;5017947;28;20556;-60
2022/11/17 03:30:45;;;;;;;4.93;3.77;;;10.30;99.90;;;;;;5017384;28;20504;-60
2022/11/17 03:33:17;;;;;;;7.83;5.03;;;10.20;99.90;;;;;;5017757;28;20454;-60
2022/11/17 03:35:49;;;;;;;4.20;3.80;;;10.30;99.90;;;;;;5017697;28;20479;-60
2022/11/17 03:38:18;;;;;;;7.13;5.07;;;10.30;99.90;;;;;;5017334;28;20860;-61
2022/11/17 03:40:49;;;;;;;7.23;4.40;;;10.30;99.90;;;;;;5017232;28;20537;-60
2022/11/17 03:43:20;;;;;;;5.27;4.80;;;10.30;99.90;;;;;;5017231;28;20466;-61
2022/11/17 03:45:52;;;;;;;4.20;3.90;;;10.30;99.90;;;;;;5017107;28;21006;-61
2022/11/17 03:48:24;;;;;;;4.60;3.67;;;10.30;99.90;;;;;;5017549;28;20886;-61
2022/11/17 03:51:06;;;;;;;9.50;4.60;;;10.40;99.90;;;;;;5017036;28;20543;-61
2022/11/17 03:53:34;;;;;;;4.50;3.90;;;10.40;99.90;;;;;;5017044;28;20527;-61
2022/11/17 03:56:08;;;;;;;5.97;4.43;;;10.50;99.90;;;;;;5017247;28;20577;-61
2022/11/17 03:58:43;;;;;;;4.00;3.63;;;10.30;99.90;;;;;;5016955;28;20473;-61
2022/11/17 04:01:13;;;;;;;4.53;4.13;;;10.20;99.90;;;;;;5016933;28;20470;-61
2022/11/17 04:03:41;;;;;;;9.90;3.87;;;10.10;99.90;;;;;;5016811;28;20478;-61
2022/11/17 04:06:08;;;;;;;4.50;3.67;;;10.20;99.90;;;;;;5017225;28;20885;-61
2022/11/17 04:08:35;;;;;;;4.13;3.70;;;10.20;99.90;;;;;;5016701;28;20497;-61
2022/11/17 04:16:33;;;;;;;3.80;3.23;;;10.20;99.90;;;;;;5016803;28;20531;-61
2022/11/17 04:19:01;;;;;;;4.03;3.67;;;10.20;99.90;;;;;;5016723;28;20447;-61
2022/11/17 04:21:28;;;;;;;4.03;3.37;;;10.20;99.90;;;;;;5016776;28;20459;-61
2022/11/17 04:23:56;;;;;;;6.23;3.63;;;10.30;99.90;;;;;;5016875;28;20447;-60
2022/11/17 04:29:09;;;;;;;5.73;3.80;;;10.30;99.90;;;;;;5016389;28;20462;-60
2022/11/17 04:31:37;;;;;;;3.80;3.40;;;10.30;99.90;;;;;;5016301;28;20813;-60
2022/11/17 04:34:06;;;;;;;3.50;3.10;;;10.30;99.90;;;;;;5016232;28;21012;-60
2022/11/17 04:36:38;;;;;;;4.10;3.70;;;10.30;99.90;;;;;;5016456;28;20471;-61
2022/11/17 04:39:06;;;;;;;4.10;3.70;;;10.30;99.90;;;;;;5017170;28;20523;-61
2022/11/17 04:44:20;;;;;;;4.90;4.00;;;10.40;99.90;;;;;;5016410;28;20495;-61
2022/11/17 04:46:49;;;;;;;3.33;3.00;;;10.40;99.90;;;;;;5016297;28;20490;-61
2022/11/17 04:49:18;;;;;;;9.27;4.07;;;10.30;99.90;;;;;;5015898;28;20573;-60
2022/11/17 04:51:46;;;;;;;7.10;3.50;;;10.40;99.90;;;;;;5016094;28;20482;-60
2022/11/17 04:54:16;;;;;;;3.50;3.20;;;10.40;99.90;;;;;;5015783;28;20490;-60
2022/11/17 04:56:44;;;;;;;3.17;2.73;;;10.30;99.90;;;;;;5015816;28;20499;-60
2022/11/17 04:59:11;;;;;;;4.93;4.53;;;10.30;99.90;;;;;;5015771;28;20450;-60
2022/11/17 05:01:38;;;;;;;5.10;3.77;;;10.30;99.90;;;;;;5015710;28;20949;-61
2022/11/17 05:04:09;;;;;;;5.60;4.50;;;10.30;99.90;;;;;;5016431;28;20451;-60
2022/11/17 05:06:38;;;;;;;3.23;2.97;;;10.40;99.90;;;;;;5015729;28;20499;-60
2022/11/17 05:09:07;;;;;;;3.60;3.30;;;10.40;99.90;;;;;;5015265;28;20495;-60
2022/11/17 05:14:21;;;;;;;4.30;3.67;;;10.40;99.90;;;;;;5015926;28;20523;-60
2022/11/17 05:17:08;;;;;;;5.40;3.70;;;10.40;99.90;;;;;;5016580;28;20537;-60
2022/11/17 05:19:38;;;;;;;3.97;3.67;;;10.30;99.90;;;;;;5015735;28;20507;-61
2022/11/17 05:23:52;;;;;;;4.83;4.30;;;10.40;99.90;;;;;;5015419;28;20504;-60
2022/11/17 05:24:53;;;;;;;3.97;3.03;;;10.40;99.90;;;;;;5015276;28;20459;-60
2022/11/17 05:27:21;;;;;;;4.50;4.10;;;10.40;99.90;;;;;;5015267;28;20930;-60
2022/11/17 05:29:48;;;;;;;3.70;3.40;;;10.50;99.90;;;;;;5015115;28;20575;-60
2022/11/17 05:32:17;;;;;;;3.83;3.43;;;10.50;99.90;;;;;;5015408;28;20821;-60
2022/11/17 05:34:46;;;;;;;3.70;3.40;;;10.50;99.90;;;;;;5015090;28;20486;-61
2022/11/17 05:37:13;;;;;;;4.77;4.37;;;10.50;99.90;;;;;;5014982;28;20456;-61
2022/11/17 05:39:40;;;;;;;4.00;3.60;;;10.50;99.90;;;;;;5014979;28;20949;-60
2022/11/17 05:42:07;;;;;;;4.80;4.40;;;10.50;99.90;;;;;;5015038;28;20962;-60
2022/11/17 05:44:35;;;;;;;4.90;4.00;;;10.60;99.90;;;;;;5014893;28;20447;-61
2022/11/17 05:47:02;;;;;;;5.40;2.93;;;10.50;99.90;;;;;;5015660;28;20451;-60
2022/11/17 05:49:29;;;;;;;4.90;3.50;;;10.60;99.90;;;;;;5015031;28;20482;-61
2022/11/17 05:51:58;;;;;;;3.77;3.47;;;10.60;99.90;;;;;;5014757;28;20454;-61
2022/11/17 05:54:26;;;;;;;3.70;3.40;;;10.60;99.90;;;;;;5014632;28;20478;-61
2022/11/17 05:56:58;;;;;;;5.00;3.47;;;10.70;99.90;;;;;;5014615;28;20453;-60
2022/11/17 05:59:30;;;;;;;6.77;3.47;;;10.70;99.90;;;;;;5014675;28;20486;-61
2022/11/17 06:02:03;;;;;;;4.23;3.60;;;10.70;99.90;;;;;;5015144;28;20505;-61
2022/11/17 06:04:31;;;;;;;4.33;3.57;;;10.70;99.90;;;;;;5015097;28;20459;-60
2022/11/17 06:07:01;;;;;;;5.20;4.03;;;10.70;99.90;;;;;;5014773;28;20461;-60
2022/11/17 06:09:31;;;;;;;4.30;3.33;;;10.60;99.90;;;;;;5014261;28;20499;-61
2022/11/17 06:11:58;;;;;;;7.30;3.50;;;10.70;99.90;;;;;;5014352;28;20518;-60
2022/11/17 06:14:26;;;;;;;6.70;3.80;;;10.70;99.90;;;;;;5014404;28;20483;-61
2022/11/17 06:16:58;;;;;;;5.23;3.57;;;10.70;99.90;;;;;;5014233;28;20502;-61
2022/11/17 06:19:28;;;;;;;5.17;3.80;;;10.70;99.90;;;;;;5014696;28;20424;-61
2022/11/17 06:21:56;;;;;;;3.30;3.10;;;10.70;99.90;;;;;;5014209;28;20427;-61
2022/11/17 06:24:25;;;;;;;5.10;3.10;;;10.80;99.90;;;;;;5014266;28;20447;-61
2022/11/17 06:26:52;;;;;;;4.30;3.90;;;10.80;99.90;;;;;;5014214;28;20535;-60
2022/11/17 06:29:20;;;;;;;2.80;2.60;;;10.90;99.90;;;;;;5014060;28;20483;-60
2022/11/17 06:31:47;;;;;;;4.90;2.80;;;10.80;99.90;;;;;;5014236;28;20479;-60
2022/11/17 06:34:15;;;;;;;5.03;3.80;;;10.80;99.90;;;;;;5014149;28;20463;-61
2022/11/17 06:36:42;;;;;;;4.13;3.40;;;10.80;99.90;;;;;;5014083;28;20471;-61
2022/11/17 06:39:09;;;;;;;3.47;3.17;;;10.80;99.90;;;;;;5013953;28;20448;-61
2022/11/17 06:41:39;;;;;;;4.50;3.27;;;10.70;99.90;;;;;;5013870;28;20451;-60
2022/11/17 06:44:06;;;;;;;6.20;3.50;;;10.70;99.90;;;;;;5013756;28;20456;-60
2022/11/17 06:46:37;;;;;;;3.43;2.60;;;10.60;99.90;;;;;;5013256;28;20479;-60
2022/11/17 06:49:06;;;;;;;3.70;2.60;;;10.60;99.90;;;;;;5013561;28;20475;-61
2022/11/17 06:51:34;;;;;;;2.97;2.77;;;10.70;99.90;;;;;;5013981;28;20505;-61
2022/11/17 06:54:02;;;;;;;2.57;2.37;;;10.70;99.90;;;;;;5013600;28;20463;-61
2022/11/17 06:56:30;;;;;;;3.90;2.30;;;10.70;99.90;;;;;;5013477;28;20475;-61
2022/11/17 06:58:59;;;;;;;2.97;2.70;;;10.80;99.90;;;;;;5014589;28;20970;-60
2022/11/17 07:01:26;;;;;;;3.43;3.10;;;10.90;99.90;;;;;;5014084;28;20538;-60
2022/11/17 07:03:53;;;;;;;2.57;2.37;;;11.00;99.90;;;;;;5013584;28;21021;-61
2022/11/17 07:06:21;;;;;;;5.63;3.37;;;11.00;99.90;;;;;;5013698;28;20475;-60
2022/11/17 07:08:49;;;;;;;3.63;2.83;;;11.00;99.90;;;;;;5013256;28;20881;-60
2022/11/17 07:11:17;;;;;;;2.80;2.53;;;11.00;99.90;;;;;;5013594;28;20941;-60
2022/11/17 07:13:44;;;;;;;2.80;2.60;;;11.00;99.90;;;;;;5013421;28;20451;-60
2022/11/17 07:16:15;;;;;;;3.60;2.60;;;11.00;99.90;;;;;;5013398;28;20470;-60
2022/11/17 07:18:42;;;;;;;2.60;2.40;;;11.00;99.90;;;;;;5013491;28;20542;-60
2022/11/17 07:21:12;;;;;;;2.97;2.67;;;11.00;99.90;;;;;;5013299;28;20454;-60
2022/11/17 07:23:40;;;;;;;3.47;2.60;;;11.00;99.90;;;;;;5014525;28;20489;-60
2022/11/17 07:26:08;;;;;;;4.73;2.20;;;11.00;99.90;;;;;;5012935;28;20533;-60
2022/11/17 07:28:35;;;;;;;1.97;1.80;;;11.00;99.90;;;;;;5013629;28;20466;-60
2022/11/17 07:31:04;;;;;;;2.87;2.40;;;11.00;99.90;;;;;;5013262;28;20518;-61
2022/11/17 07:33:33;;;;;;;3.37;2.50;;;11.10;99.90;;;;;;5013542;28;20505;-61
2022/11/17 07:36:03;;;;;;;6.03;3.10;;;11.20;99.90;;;;;;5013585;28;20509;-60
2022/11/17 07:38:34;;;;;;;3.03;2.70;;;11.20;99.90;;;;;;5013668;28;20450;-60
2022/11/17 07:41:02;;;;;;;3.20;2.10;;;;;;;;;;5013383;28;20842;-60
2022/11/17 07:43:30;;;;;;;3.87;2.33;;;11.30;99.90;;;;;;5013581;28;20451;-60
2022/11/17 07:45:57;;;;;;;3.07;2.27;;;11.30;99.90;;;;;;5013330;28;20495;-60
2022/11/17 07:48:25;;;;;;;2.90;2.60;;;11.30;99.90;;;;;;5012927;28;20451;-60
2022/11/17 07:50:53;;;;;;;2.47;2.27;;;11.30;99.90;;;;;;5013166;28;20479;-60
2022/11/17 07:53:21;;;;;;;2.50;2.17;;;11.30;99.90;;;;;;5013224;28;20845;-60
2022/11/17 07:55:48;;;;;;;6.57;3.03;;;11.30;99.90;;;;;;5012994;28;20902;-60
2022/11/17 07:58:15;;;;;;;3.77;2.30;;;11.40;99.90;;;;;;5013119;28;20817;-60
2022/11/17 08:00:42;;;;;;;2.47;2.27;;;11.50;99.90;;;;;;5013010;28;20478;-60
2022/11/17 08:03:10;;;;;;;3.93;2.00;;;11.50;99.90;;;;;;5016939;28;20853;-60
2022/11/17 08:05:38;;;;;;;2.30;2.10;;;11.60;99.90;;;;;;5016856;28;20483;-61
2022/11/17 08:08:08;;;;;;;5.77;1.97;;;11.60;99.90;;;;;;5015536;28;20985;-61
2022/11/17 08:10:35;;;;;;;3.47;2.20;;;11.60;99.90;;;;;;5016945;28;20503;-60
2022/11/17 08:13:02;;;;;;;3.60;2.10;;;11.70;99.90;;;;;;5016371;28;20443;-60
2022/11/17 08:15:30;;;;;;;2.60;2.10;;;11.70;99.90;;;;;;5016220;28;20482;-60
2022/11/17 08:17:59;;;;;;;1.93;1.73;;;11.80;99.90;;;;;;5016318;28;20454;-60
2022/11/17 08:20:28;;;;;;;2.80;1.80;;;11.80;99.90;;;;;;5016319;28;20443;-61
2022/11/17 08:22:56;;;;;;;2.90;1.60;;;11.90;99.90;;;;;;5016049;28;20486;-60
2022/11/17 08:25:27;;;;;;;3.80;1.87;;;12.00;99.90;;;;;;5016210;28;20463;-60
2022/11/17 08:27:57;;;;;;;1.53;1.37;;;12.10;99.90;;;;;;5016415;28;20435;-60
2022/11/17 08:30:26;;;;;;;3.57;1.70;;;12.20;99.90;;;;;;5016337;28;20467;-60
2022/11/17 08:32:54;;;;;;;2.07;1.90;;;12.20;99.90;;;;;;5015893;28;20486;-60
2022/11/17 08:35:23;;;;;;;2.07;1.87;;;12.30;99.90;;;;;;5015645;28;20514;-60
2022/11/17 08:37:50;;;;;;;3.37;1.57;;;12.30;99.90;;;;;;5016506;28;20889;-61
2022/11/17 08:40:18;;;;;;;4.23;1.90;;;12.30;99.90;;;;;;5015770;28;20454;-63
2022/11/17 08:42:47;;;;;;;3.00;1.47;;;;;;;;;;5015985;28;20458;-61
2022/11/17 08:45:14;;;;;;;2.40;2.20;;;12.40;99.90;;;;;;5015842;28;20499;-62
2022/11/17 08:47:42;;;;;;;3.00;1.40;;;12.40;99.90;;;;;;5015697;28;20457;-61
2022/11/17 08:50:09;;;;;;;2.33;1.40;;;12.40;99.90;;;;;;5015381;28;20479;-61
2022/11/17 08:52:37;;;;;;;4.07;1.67;;;12.30;99.90;;;;;;5015720;28;20451;-61
2022/11/17 08:55:05;;;;;;;2.53;1.83;;;12.40;99.90;;;;;;5015807;28;20780;-60
2022/11/17 08:57:33;;;;;;;2.20;1.40;;;12.40;99.90;;;;;;5016336;28;20547;-60
2022/11/17 09:00:02;;;;;;;5.63;2.20;;;12.50;99.90;;;;;;5015383;28;20953;-61
2022/11/17 09:02:30;;;;;;;2.23;1.43;;;12.50;99.90;;;;;;5015761;28;20451;-60
2022/11/17 09:04:57;;;;;;;7.17;1.73;;;12.50;99.90;;;;;;5015410;28;20999;-60
2022/11/17 09:07:25;;;;;;;2.00;1.30;;;12.60;99.90;;;;;;5015426;28;20443;-62
2022/11/17 09:09:52;;;;;;;1.80;1.20;;;12.60;99.90;;;;;;5015467;28;20533;-61
2022/11/17 09:12:19;;;;;;;2.90;1.40;;;12.60;99.90;;;;;;5015256;28;20455;-63
2022/11/17 09:14:46;;;;;;;2.13;1.30;;;12.70;99.90;;;;;;5014997;28;20548;-61
2022/11/17 09:17:15;;;;;;;2.60;1.30;;;12.80;99.90;;;;;;5015479;28;20479;-61
2022/11/17 09:19:42;;;;;;;2.47;1.70;;;12.70;99.90;;;;;;5015041;28;20443;-61
2022/11/17 09:22:10;;;;;;;1.83;1.37;;;12.80;99.90;;;;;;5015283;28;20459;-62
2022/11/17 09:24:38;;;;;;;3.50;2.03;;;12.80;99.90;;;;;;5015219;28;20443;-62
2022/11/17 09:27:05;;;;;;;6.30;1.40;;;12.80;99.90;;;;;;5015099;28;20451;-61
2022/11/17 09:29:32;;;;;;;1.50;1.37;;;12.80;99.90;;;;;;5015165;28;20510;-61
2022/11/17 09:32:00;;;;;;;2.03;1.30;;;12.80;99.90;;;;;;5015381;28;20927;-61
2022/11/17 09:34:29;;;;;;;3.90;1.80;;;12.90;99.90;;;;;;5014828;28;20467;-61
2022/11/17 09:36:56;;;;;;;1.73;1.37;;;13.00;99.90;;;;;;5014888;28;20431;-61
2022/11/17 09:39:24;;;;;;;2.87;1.53;;;;;;;;;;5015110;28;20466;-61
2022/11/17 09:41:53;;;;;;;1.80;1.43;;;13.40;99.90;;;;;;5015101;28;20530;-61
2022/11/17 09:44:28;;;;;;;7.33;1.53;;;13.50;99.90;;;;;;5015010;28;20494;-62
2022/11/17 09:47:08;;;;;;;3.27;1.60;;;13.80;99.90;;;;;;5015015;28;20485;-61
2022/11/17 09:49:49;;;;;;;2.67;1.50;;;13.80;99.90;;;;;;5014655;28;20952;-62
2022/11/17 09:52:22;;;;;;;3.53;1.40;;;13.60;99.90;;;;;;5014829;28;20442;-62
2022/11/17 09:54:54;;;;;;;2.90;1.53;;;13.50;99.90;;;;;;5014474;28;20498;-61
2022/11/17 09:57:27;;;;;;;3.93;1.60;;;13.50;99.90;;;;;;5014507;28;20489;-61
2022/11/17 10:00:04;;;;;;;2.93;1.30;;;13.30;99.90;;;;;;5014823;28;20494;-62
2022/11/17 10:02:31;;;;;;;4.23;1.77;;;13.40;99.90;;;;;;5014340;28;20431;-61
2022/11/17 10:05:00;;;;;;;2.53;1.90;;;13.50;99.90;;;;;;5014684;28;20494;-62
2022/11/17 10:07:31;;;;;;;2.60;2.00;;;13.30;99.90;;;;;;5013932;28;20451;-61
2022/11/17 10:10:00;;;;;;;2.00;1.57;;;13.40;99.90;;;;;;5013755;28;20565;-61
2022/11/17 10:12:34;;;;;;;5.27;1.83;;;13.40;99.90;;;;;;5014384;28;20451;-61
2022/11/17 10:15:23;;;;;;;2.80;1.70;;;13.50;99.90;;;;;;5014310;28;20767;-61
2022/11/17 10:17:51;;;;;;;5.57;1.80;;;13.60;99.90;;;;;;5014127;28;20498;-61
2022/11/17 10:20:20;;;;;;;2.70;1.50;;;13.80;99.90;;;;;;5014147;28;20475;-61
2022/11/17 10:22:48;;;;;;;3.30;1.57;;;13.90;99.90;;;;;;5013989;28;20451;-62
2022/11/17 10:25:35;;;;;;;5.27;1.70;;;14.10;99.90;;;;;;5013364;28;21032;-61
2022/11/17 10:28:02;;;;;;;2.47;1.63;;;14.10;99.90;;;;;;5014194;28;20434;-61
2022/11/17 10:30:30;;;;;;;3.93;1.70;;;14.20;99.90;;;;;;5014184;28;20533;-61
2022/11/17 10:32:59;;;;;;;3.43;1.77;;;14.10;99.90;;;;;;5014203;28;20451;-60
2022/11/17 10:35:30;;;;;;;6.33;1.80;;;13.90;99.90;;;;;;5014428;28;20533;-61
2022/11/17 10:37:59;;;;;;;4.83;2.10;;;14.10;99.90;;;;;;5014780;28;20432;-61
2022/11/17 10:40:29;;;;;;;4.27;2.47;;;15.00;99.90;;;;;;5013848;28;20490;-61
2022/11/17 10:43:20;;;;;;;5.17;1.93;;;15.70;99.90;;;;;;5014026;28;20482;-61
2022/11/17 10:45:49;;;;;;;2.10;1.83;;;15.50;99.90;;;;;;5004256;28;20475;-61
2022/11/17 10:48:26;;;;;;;6.80;1.80;;;15.40;99.90;;;;;;5013770;28;20443;-61
2022/11/17 10:50:57;;;;;;;3.60;1.97;;;15.40;99.90;;;;;;5014355;28;20806;-60
2022/11/17 10:53:31;;;;;;;8.37;1.97;;;15.00;99.90;;;;;;5013549;28;20467;-61
2022/11/17 10:56:03;;;;;;;3.30;1.87;;;14.70;99.90;;;;;;5014385;28;20515;-60
2022/11/17 10:58:32;;;;;;;3.53;1.90;;;14.40;99.90;;;;;;5013891;28;20428;-59
2022/11/17 11:01:01;;;;;;;5.13;1.80;;;14.30;99.90;;;;;;5013640;28;20501;-60
2022/11/17 11:03:30;;;;;;;3.30;1.77;;;14.50;99.90;;;;;;5013472;28;20547;-60
2022/11/17 11:06:05;;;;;;;3.40;1.90;;;15.70;99.90;;;;;;5014062;28;20556;-59
2022/11/17 11:08:47;;;;;;;2.13;1.60;;;16.30;99.90;;;;;;5013409;28;20486;-60
2022/11/17 11:11:25;;;;;;;3.53;1.93;;;17.60;99.90;;;;;;5013553;28;20475;-60
2022/11/17 11:13:56;;;;;;;4.83;1.70;;;;;;;;;;5013535;28;20439;-59
2022/11/17 11:16:26;;;;;;;3.23;1.67;;;18.20;99.90;;;;;;5013225;28;20837;-59
2022/11/17 11:18:53;;;;;;;2.97;1.40;;;17.60;99.90;;;;;;5013161;28;20451;-60
2022/11/17 11:21:40;;;;;;;2.23;1.40;;;18.00;99.90;;;;;;5013268;28;20535;-59
2022/11/17 11:24:17;;;;;;;4.80;2.23;;;18.20;99.90;;;;;;5014408;28;20463;-60
2022/11/17 11:26:57;;;;;;;4.03;2.10;;;18.90;99.90;;;;;;5013141;28;20984;-59
2022/11/17 11:29:34;;;;;;;3.23;1.60;;;18.80;99.90;;;;;;5013270;28;20493;-59
2022/11/17 11:32:21;;;;;;;5.30;1.83;;;18.70;99.90;;;;;;5014318;28;20545;-59
2022/11/17 11:35:20;;;;;;;3.40;1.90;;;18.10;99.90;;;;;;5013667;28;20565;-60
2022/11/17 11:37:59;;;;;;;2.53;1.83;;;17.90;99.90;;;;;;5017151;28;20427;-59
2022/11/17 11:40:29;;;;;;;4.70;1.70;;;17.60;99.90;;;;;;5017073;28;20500;-60
2022/11/17 11:42:58;;;;;;;2.70;1.50;;;17.50;99.90;;;;;;5016972;28;20489;-59
2022/11/17 11:45:42;;;;;;;3.17;1.80;;;17.20;99.90;;;;;;5016900;28;20470;-59
2022/11/17 11:48:17;;;;;;;8.73;2.37;;;16.10;99.90;;;;;;5016842;28;20431;-60
2022/11/17 11:50:54;;;;;;;3.30;1.80;;;16.00;99.90;;;;;;5016782;28;20502;-59
2022/11/17 11:53:29;;;;;;;5.77;1.93;;;15.50;99.90;;;;;;5017155;28;20765;-62
2022/11/17 11:56:09;;;;;;;3.70;1.80;;;15.50;99.90;;;;;;5016495;28;20839;-60
2022/11/17 11:58:42;;;;;;;3.53;1.90;;;14.90;99.90;;;;;;5016773;28;20523;-61
2022/11/17 12:01:11;;;;;;;5.03;2.10;;;14.70;99.90;;;;;;5016807;28;20843;-61
2022/11/17 12:03:48;;;;;;;5.03;1.80;;;14.40;99.90;;;;;;5016895;28;20538;-61
2022/11/17 12:06:43;;;;;;;4.27;1.83;;;14.30;99.90;;;;;;5016747;28;20466;-61
2022/11/17 12:09:46;;;;;;;3.90;1.80;;;14.30;99.90;;;;;;5016398;28;20517;-61
2022/11/17 12:12:19;;;;;;;3.27;1.90;;;14.70;99.90;;;;;;4969943;28;20585;-62
2022/11/17 12:15:10;;;;;;;3.70;1.73;;;15.30;99.90;;;;;;5017136;28;20866;-61
2022/11/17 12:17:37;;;;;;;3.10;1.93;;;15.40;99.90;;;;;;5016260;28;20478;-61
2022/11/17 12:20:32;;;;;;;4.93;2.37;;;15.10;99.90;;;;;;5016297;28;20502;-62
2022/11/17 12:23:09;;;;;;;4.87;2.03;;;14.90;99.90;;;;;;5016010;28;20450;-61
2022/11/17 12:25:46;;;;;;;3.00;1.87;;;14.90;99.90;;;;;;5016053;28;20976;-62
2022/11/17 12:28:34;;;;;;;5.80;1.60;;;14.70;99.90;;;;;;5016953;28;20439;-62
2022/11/17 12:31:03;;;;;;;6.43;1.93;;;14.60;99.90;;;;;;5016070;28;20467;-61
2022/11/17 12:34:07;;;;;;;7.60;2.50;;;14.50;99.90;;;;;;5016089;28;20486;-61
2022/11/17 12:36:35;;;;;;;7.13;2.13;;;14.30;99.90;;;;;;5015667;28;20469;-61
2022/11/17 12:39:24;;;;;;;8.27;2.30;;;14.30;99.90;;;;;;5016079;28;20538;-61
2022/11/17 12:42:08;;;;;;;4.83;2.00;;;14.30;99.90;;;;;;5016021;28;20815;-61
2022/11/17 12:45:00;;;;;;;4.90;1.80;;;14.30;99.90;;;;;;5015864;28;20478;-61
2022/11/17 12:47:29;;;;;;;6.07;2.13;;;14.30;99.90;;;;;;4996179;28;20447;-61
2022/11/17 12:50:22;;;;;;;3.97;2.50;;;14.30;99.90;;;;;;5015648;28;20469;-61
2022/11/17 12:53:17;;;;;;;4.10;1.90;;;14.30;99.90;;;;;;5015885;28;20423;-61
2022/11/17 12:56:21;;;;;;;6.07;2.23;;;14.30;99.90;;;;;;5015527;28;20473;-59
2022/11/17 12:59:13;;;;;;;2.00;1.70;;;14.40;99.90;;;;;;5015221;28;20875;-60
2022/11/17 13:01:47;;;;;;;9.70;2.83;;;14.50;99.90;;;;;;5015881;28;20458;-60
2022/11/17 13:04:17;;;;;;;7.13;2.07;;;14.70;99.90;;;;;;5015796;28;20454;-59
2022/11/17 13:07:00;;;;;;;5.73;1.73;;;14.70;99.90;;;;;;5015747;28;20501;-60
2022/11/17 13:09:29;;;;;;;5.07;2.50;;;14.70;99.90;;;;;;5013226;28;20565;-60
2022/11/17 13:12:02;;;;;;;5.77;2.47;;;14.70;99.90;;;;;;5015378;28;20533;-60
2022/11/17 13:14:32;;;;;;;5.83;2.47;;;14.80;99.90;;;;;;5015318;28;20454;-60
2022/11/17 13:17:01;;;;;;;6.27;2.10;;;14.80;99.90;;;;;;5015276;28;20454;-60
2022/11/17 13:19:33;;;;;;;2.87;2.03;;;14.90;99.90;;;;;;5015479;28;20462;-60
2022/11/17 13:22:01;;;;;;;3.93;1.90;;;15.10;99.90;;;;;;5015695;28;20462;-60
2022/11/17 13:24:34;;;;;;;2.87;2.20;;;15.20;99.90;;;;;;5015002;28;20497;-60
2022/11/17 13:27:06;;;;;;;6.03;2.40;;;15.40;99.90;;;;;;5015067;28;20903;-60
2022/11/17 13:29:35;;;;;;;8.93;2.37;;;15.50;99.90;;;;;;5015742;28;20518;-60
2022/11/17 13:32:13;;;;;;;9.47;2.00;;;15.40;99.90;;;;;;5015161;28;20519;-60
2022/11/17 13:34:47;;;;;;;5.50;2.57;;;15.20;99.90;;;;;;5015032;28;20454;-60
2022/11/17 13:37:17;;;;;;;5.70;2.30;;;14.90;99.90;;;;;;5015281;28;20521;-59